sensor_id;sensor_type;location;lat;lon;timestamp;noise_LAeq;noise_LA_min;noise_LA_max;noise_LA01;noise_LA95
18377;Laerm;9315;52.624;13.544;2023-07-31T00:00:23;43.36;35.75;53.45;;
18377;Laerm;9315;52.624;13.544;2023-07-31T00:02:52;59.33;37.80;75.20;;
18377;Laerm;9315;52.624;13.544;2023-07-31T00:05:21;63.31;41.44;76.23;;
18377;Laerm;9315;52.624;13.544;2023-07-31T00:07:48;55.88;40.30;73.89;;
18377;Laerm;9315;52.624;13.544;2023-07-31T00:10:16;54.67;39.13;72.26;;
18377;Laerm;9315;52.624;13.544;2023-07-31T00:12:45;57.73;40.83;75.37;;
18377;Laerm;9315;52.624;13.544;2023-07-31T00:15:14;59.04;36.49;76.62;;
18377;Laerm;9315;52.624;13.544;2023-07-31T00:17:41;59.43;39.02;74.92;;
18377;Laerm;9315;52.624;13.544;2023-07-31T00:20:09;50.50;40.01;62.95;;
18377;Laerm;9315;52.624;13.544;2023-07-31T00:22:37;56.31;38.89;73.37;;
18377;Laerm;9315;52.624;13.544;2023-07-31T00:25:04;50.49;41.05;65.12;;
18377;Laerm;9315;52.624;13.544;2023-07-31T00:27:33;53.28;40.74;68.71;;
18377;Laerm;9315;52.624;13.544;2023-07-31T00:30:00;51.15;40.87;66.30;;
18377;Laerm;9315;52.624;13.544;2023-07-31T00:32:27;45.45;40.14;52.38;;
18377;Laerm;9315;52.624;13.544;2023-07-31T00:34:57;56.05;39.95;73.34;;
18377;Laerm;9315;52.624;13.544;2023-07-31T00:37:24;44.15;38.99;52.28;;
18377;Laerm;9315;52.624;13.544;2023-07-31T00:39:51;58.06;41.14;75.57;;
18377;Laerm;9315;52.624;13.544;2023-07-31T00:42:18;46.09;40.58;56.25;;
18377;Laerm;9315;52.624;13.544;2023-07-31T00:44:45;44.82;37.93;51.23;;
18377;Laerm;9315;52.624;13.544;2023-07-31T00:47:12;56.46;37.72;73.76;;
18377;Laerm;9315;52.624;13.544;2023-07-31T00:49:40;56.76;42.39;72.63;;
18377;Laerm;9315;52.624;13.544;2023-07-31T00:52:09;59.52;38.32;75.48;;
18377;Laerm;9315;52.624;13.544;2023-07-31T00:54:37;47.03;40.46;58.98;;
18377;Laerm;9315;52.624;13.544;2023-07-31T00:57:05;58.48;38.92;73.66;;
18377;Laerm;9315;52.624;13.544;2023-07-31T00:59:34;60.52;42.78;76.72;;
18377;Laerm;9315;52.624;13.544;2023-07-31T01:02:03;46.49;40.86;55.97;;
18377;Laerm;9315;52.624;13.544;2023-07-31T01:04:31;45.33;40.37;54.28;;
18377;Laerm;9315;52.624;13.544;2023-07-31T01:07:22;43.81;38.27;52.51;;
18377;Laerm;9315;52.624;13.544;2023-07-31T01:10:04;46.44;39.42;53.72;;
18377;Laerm;9315;52.624;13.544;2023-07-31T01:12:35;54.03;38.31;72.05;;
18377;Laerm;9315;52.624;13.544;2023-07-31T01:15:07;54.69;40.56;73.34;;
18377;Laerm;9315;52.624;13.544;2023-07-31T01:17:38;54.01;41.01;72.39;;
18377;Laerm;9315;52.624;13.544;2023-07-31T01:20:23;60.58;42.06;83.11;;
18377;Laerm;9315;52.624;13.544;2023-07-31T01:23:41;46.81;41.38;60.30;;
18377;Laerm;9315;52.624;13.544;2023-07-31T01:26:23;52.06;41.37;67.30;;
18377;Laerm;9315;52.624;13.544;2023-07-31T01:29:11;56.36;40.95;74.16;;
18377;Laerm;9315;52.624;13.544;2023-07-31T01:31:48;46.34;41.30;52.72;;
18377;Laerm;9315;52.624;13.544;2023-07-31T01:34:18;55.33;38.78;72.31;;
18377;Laerm;9315;52.624;13.544;2023-07-31T01:36:45;52.27;38.26;69.88;;
18377;Laerm;9315;52.624;13.544;2023-07-31T01:39:13;61.39;42.01;77.29;;
18377;Laerm;9315;52.624;13.544;2023-07-31T01:41:40;57.53;43.20;73.34;;
18377;Laerm;9315;52.624;13.544;2023-07-31T01:44:07;53.26;42.84;66.94;;
18377;Laerm;9315;52.624;13.544;2023-07-31T01:46:34;63.15;39.62;83.12;;
18377;Laerm;9315;52.624;13.544;2023-07-31T01:49:02;62.68;42.87;80.35;;
18377;Laerm;9315;52.624;13.544;2023-07-31T01:51:29;61.32;43.45;73.00;;
18377;Laerm;9315;52.624;13.544;2023-07-31T01:53:59;52.52;43.31;68.11;;
18377;Laerm;9315;52.624;13.544;2023-07-31T01:56:27;51.66;41.79;66.39;;
18377;Laerm;9315;52.624;13.544;2023-07-31T01:58:54;56.89;40.27;71.27;;
18377;Laerm;9315;52.624;13.544;2023-07-31T02:01:21;45.20;40.55;56.75;;
18377;Laerm;9315;52.624;13.544;2023-07-31T02:03:49;65.77;39.08;81.58;;
18377;Laerm;9315;52.624;13.544;2023-07-31T02:06:16;49.81;39.42;68.18;;
18377;Laerm;9315;52.624;13.544;2023-07-31T02:08:43;61.38;37.42;77.21;;
18377;Laerm;9315;52.624;13.544;2023-07-31T02:11:10;61.72;41.66;75.34;;
18377;Laerm;9315;52.624;13.544;2023-07-31T02:13:39;63.17;40.57;78.40;;
18377;Laerm;9315;52.624;13.544;2023-07-31T02:16:06;66.40;42.61;82.61;;
18377;Laerm;9315;52.624;13.544;2023-07-31T02:18:33;59.25;41.70;73.96;;
18377;Laerm;9315;52.624;13.544;2023-07-31T02:21:01;62.97;42.76;75.63;;
18377;Laerm;9315;52.624;13.544;2023-07-31T02:23:29;63.05;44.00;75.41;;
18377;Laerm;9315;52.624;13.544;2023-07-31T02:25:56;61.01;45.24;76.84;;
18377;Laerm;9315;52.624;13.544;2023-07-31T02:28:23;63.97;45.95;77.12;;
18377;Laerm;9315;52.624;13.544;2023-07-31T02:30:51;66.86;46.44;77.33;;
18377;Laerm;9315;52.624;13.544;2023-07-31T02:33:19;69.57;45.43;82.89;;
18377;Laerm;9315;52.624;13.544;2023-07-31T02:35:46;64.09;42.69;76.25;;
18377;Laerm;9315;52.624;13.544;2023-07-31T02:38:13;64.71;43.79;77.46;;
18377;Laerm;9315;52.624;13.544;2023-07-31T02:40:41;61.43;44.49;73.71;;
18377;Laerm;9315;52.624;13.544;2023-07-31T02:43:08;67.42;44.54;82.15;;
18377;Laerm;9315;52.624;13.544;2023-07-31T02:45:36;67.61;41.89;82.12;;
18377;Laerm;9315;52.624;13.544;2023-07-31T02:48:04;68.70;43.37;78.89;;
18377;Laerm;9315;52.624;13.544;2023-07-31T02:50:32;71.15;42.14;86.28;;
18377;Laerm;9315;52.624;13.544;2023-07-31T02:53:00;68.84;41.72;78.49;;
18377;Laerm;9315;52.624;13.544;2023-07-31T02:55:27;68.66;41.01;80.14;;
18377;Laerm;9315;52.624;13.544;2023-07-31T02:57:54;66.94;41.69;79.46;;
18377;Laerm;9315;52.624;13.544;2023-07-31T03:00:21;70.32;45.17;81.62;;
18377;Laerm;9315;52.624;13.544;2023-07-31T03:02:48;68.55;47.00;78.51;;
18377;Laerm;9315;52.624;13.544;2023-07-31T03:05:18;68.73;45.34;81.17;;
18377;Laerm;9315;52.624;13.544;2023-07-31T03:07:45;68.59;45.88;76.42;;
18377;Laerm;9315;52.624;13.544;2023-07-31T03:10:12;67.15;46.21;78.45;;
18377;Laerm;9315;52.624;13.544;2023-07-31T03:12:41;67.67;45.25;78.60;;
18377;Laerm;9315;52.624;13.544;2023-07-31T03:15:08;70.14;46.40;79.80;;
18377;Laerm;9315;52.624;13.544;2023-07-31T03:17:36;69.08;44.59;78.48;;
18377;Laerm;9315;52.624;13.544;2023-07-31T03:20:04;73.03;48.40;82.94;;
18377;Laerm;9315;52.624;13.544;2023-07-31T03:22:31;70.93;48.05;82.35;;
18377;Laerm;9315;52.624;13.544;2023-07-31T03:24:59;68.83;46.30;79.23;;
18377;Laerm;9315;52.624;13.544;2023-07-31T03:27:26;71.13;44.11;82.29;;
18377;Laerm;9315;52.624;13.544;2023-07-31T03:29:53;71.66;49.86;83.35;;
18377;Laerm;9315;52.624;13.544;2023-07-31T03:32:20;69.16;44.61;80.59;;
18377;Laerm;9315;52.624;13.544;2023-07-31T03:34:49;70.44;46.68;80.67;;
18377;Laerm;9315;52.624;13.544;2023-07-31T03:37:16;70.66;45.32;79.39;;
18377;Laerm;9315;52.624;13.544;2023-07-31T03:39:43;72.67;49.01;84.39;;
18377;Laerm;9315;52.624;13.544;2023-07-31T03:42:10;70.38;47.19;81.30;;
18377;Laerm;9315;52.624;13.544;2023-07-31T03:44:37;71.27;50.03;83.30;;
18377;Laerm;9315;52.624;13.544;2023-07-31T03:47:05;71.73;50.00;81.27;;
18377;Laerm;9315;52.624;13.544;2023-07-31T03:49:33;72.25;51.33;84.57;;
18377;Laerm;9315;52.624;13.544;2023-07-31T03:52:00;71.21;49.80;80.91;;
18377;Laerm;9315;52.624;13.544;2023-07-31T03:54:27;71.01;50.69;83.83;;
18377;Laerm;9315;52.624;13.544;2023-07-31T03:56:54;70.26;48.65;79.69;;
18377;Laerm;9315;52.624;13.544;2023-07-31T03:59:21;71.29;49.29;85.35;;
18377;Laerm;9315;52.624;13.544;2023-07-31T04:01:51;71.01;48.55;82.68;;
18377;Laerm;9315;52.624;13.544;2023-07-31T04:04:18;69.41;47.50;81.29;;
18377;Laerm;9315;52.624;13.544;2023-07-31T04:06:45;69.96;48.67;81.20;;
18377;Laerm;9315;52.624;13.544;2023-07-31T04:09:12;70.32;48.45;84.02;;
18377;Laerm;9315;52.624;13.544;2023-07-31T04:11:39;72.54;48.44;83.94;;
18377;Laerm;9315;52.624;13.544;2023-07-31T04:14:06;69.84;50.48;83.79;;
18377;Laerm;9315;52.624;13.544;2023-07-31T04:16:34;70.41;48.89;81.20;;
18377;Laerm;9315;52.624;13.544;2023-07-31T04:19:01;71.21;48.68;81.23;;
18377;Laerm;9315;52.624;13.544;2023-07-31T04:21:30;72.19;50.54;81.87;;
18377;Laerm;9315;52.624;13.544;2023-07-31T04:23:57;72.42;49.74;83.63;;
18377;Laerm;9315;52.624;13.544;2023-07-31T04:26:25;72.46;50.89;84.78;;
18377;Laerm;9315;52.624;13.544;2023-07-31T04:28:53;69.72;50.38;79.89;;
18377;Laerm;9315;52.624;13.544;2023-07-31T04:31:20;69.87;50.90;81.47;;
18377;Laerm;9315;52.624;13.544;2023-07-31T04:33:47;73.47;52.49;83.72;;
18377;Laerm;9315;52.624;13.544;2023-07-31T04:36:15;71.64;50.44;82.43;;
18377;Laerm;9315;52.624;13.544;2023-07-31T04:38:42;70.49;49.66;79.04;;
18377;Laerm;9315;52.624;13.544;2023-07-31T04:41:09;70.50;49.51;80.75;;
18377;Laerm;9315;52.624;13.544;2023-07-31T04:43:36;71.81;49.35;82.41;;
18377;Laerm;9315;52.624;13.544;2023-07-31T04:46:06;69.46;48.20;81.25;;
18377;Laerm;9315;52.624;13.544;2023-07-31T04:48:33;69.65;47.82;80.96;;
18377;Laerm;9315;52.624;13.544;2023-07-31T04:51:00;70.42;49.41;78.42;;
18377;Laerm;9315;52.624;13.544;2023-07-31T04:53:27;68.75;47.90;78.85;;
18377;Laerm;9315;52.624;13.544;2023-07-31T04:55:55;77.12;53.36;94.31;;
18377;Laerm;9315;52.624;13.544;2023-07-31T04:58:22;70.52;49.42;82.34;;
18377;Laerm;9315;52.624;13.544;2023-07-31T05:00:49;71.01;50.14;79.66;;
18377;Laerm;9315;52.624;13.544;2023-07-31T05:03:16;70.72;49.90;80.01;;
18377;Laerm;9315;52.624;13.544;2023-07-31T05:05:43;70.97;48.10;81.68;;
18377;Laerm;9315;52.624;13.544;2023-07-31T05:08:11;72.36;49.86;83.37;;
18377;Laerm;9315;52.624;13.544;2023-07-31T05:10:39;70.24;49.81;78.70;;
18377;Laerm;9315;52.624;13.544;2023-07-31T05:13:06;70.89;49.59;81.96;;
18377;Laerm;9315;52.624;13.544;2023-07-31T05:15:33;82.63;49.94;108.43;;
18377;Laerm;9315;52.624;13.544;2023-07-31T05:18:00;72.89;49.50;84.59;;
18377;Laerm;9315;52.624;13.544;2023-07-31T05:20:28;71.65;48.93;83.86;;
18377;Laerm;9315;52.624;13.544;2023-07-31T05:22:55;72.43;52.54;81.43;;
18377;Laerm;9315;52.624;13.544;2023-07-31T05:25:22;72.06;54.60;81.54;;
18377;Laerm;9315;52.624;13.544;2023-07-31T05:27:49;73.78;50.41;84.07;;
18377;Laerm;9315;52.624;13.544;2023-07-31T05:30:17;74.66;51.63;87.40;;
18377;Laerm;9315;52.624;13.544;2023-07-31T05:32:44;74.39;53.57;85.99;;
18377;Laerm;9315;52.624;13.544;2023-07-31T05:35:11;73.20;49.99;83.88;;
18377;Laerm;9315;52.624;13.544;2023-07-31T05:37:39;75.09;51.10;84.83;;
18377;Laerm;9315;52.624;13.544;2023-07-31T05:40:07;73.28;49.60;87.00;;
18377;Laerm;9315;52.624;13.544;2023-07-31T05:42:34;73.02;49.47;81.98;;
18377;Laerm;9315;52.624;13.544;2023-07-31T05:45:06;71.70;50.29;81.12;;
18377;Laerm;9315;52.624;13.544;2023-07-31T05:47:34;74.16;48.19;81.79;;
18377;Laerm;9315;52.624;13.544;2023-07-31T05:50:04;72.44;58.73;81.26;;
18377;Laerm;9315;52.624;13.544;2023-07-31T05:52:31;73.03;50.50;81.13;;
18377;Laerm;9315;52.624;13.544;2023-07-31T05:54:58;74.92;49.10;84.47;;
18377;Laerm;9315;52.624;13.544;2023-07-31T05:57:25;73.60;52.07;86.89;;
18377;Laerm;9315;52.624;13.544;2023-07-31T05:59:52;73.58;49.43;81.72;;
18377;Laerm;9315;52.624;13.544;2023-07-31T06:02:20;72.28;47.25;82.26;;
18377;Laerm;9315;52.624;13.544;2023-07-31T06:04:47;72.98;52.44;81.79;;
18377;Laerm;9315;52.624;13.544;2023-07-31T06:07:15;74.14;53.62;83.98;;
18377;Laerm;9315;52.624;13.544;2023-07-31T06:09:45;73.40;49.37;82.13;;
18377;Laerm;9315;52.624;13.544;2023-07-31T06:12:12;72.66;49.87;85.62;;
18377;Laerm;9315;52.624;13.544;2023-07-31T06:14:43;74.78;52.47;87.85;;
18377;Laerm;9315;52.624;13.544;2023-07-31T06:17:10;74.67;53.20;83.74;;
18377;Laerm;9315;52.624;13.544;2023-07-31T06:19:38;74.52;49.62;82.90;;
18377;Laerm;9315;52.624;13.544;2023-07-31T06:22:06;76.03;52.52;87.76;;
18377;Laerm;9315;52.624;13.544;2023-07-31T06:24:33;74.63;52.23;85.40;;
18377;Laerm;9315;52.624;13.544;2023-07-31T06:27:00;74.99;52.40;82.64;;
18377;Laerm;9315;52.624;13.544;2023-07-31T06:29:30;74.55;54.05;87.10;;
18377;Laerm;9315;52.624;13.544;2023-07-31T06:32:00;72.84;52.10;82.75;;
18377;Laerm;9315;52.624;13.544;2023-07-31T06:34:30;72.61;51.42;82.60;;
18377;Laerm;9315;52.624;13.544;2023-07-31T06:36:59;74.85;50.49;85.76;;
18377;Laerm;9315;52.624;13.544;2023-07-31T06:39:28;74.82;51.90;87.56;;
18377;Laerm;9315;52.624;13.544;2023-07-31T06:41:56;72.00;48.61;80.55;;
18377;Laerm;9315;52.624;13.544;2023-07-31T06:44:23;75.60;52.23;86.26;;
18377;Laerm;9315;52.624;13.544;2023-07-31T06:46:53;73.78;50.37;83.88;;
18377;Laerm;9315;52.624;13.544;2023-07-31T06:49:23;72.06;49.15;81.67;;
18377;Laerm;9315;52.624;13.544;2023-07-31T06:51:50;76.98;48.91;88.12;;
18377;Laerm;9315;52.624;13.544;2023-07-31T06:54:17;72.57;48.27;84.18;;
18377;Laerm;9315;52.624;13.544;2023-07-31T06:56:45;70.93;49.17;80.47;;
18377;Laerm;9315;52.624;13.544;2023-07-31T06:59:12;73.28;48.68;87.86;;
18377;Laerm;9315;52.624;13.544;2023-07-31T07:01:39;76.53;51.01;85.93;;
18377;Laerm;9315;52.624;13.544;2023-07-31T07:04:06;73.33;50.55;82.52;;
18377;Laerm;9315;52.624;13.544;2023-07-31T07:06:34;73.84;47.21;84.79;;
18377;Laerm;9315;52.624;13.544;2023-07-31T07:09:02;73.70;47.19;83.83;;
18377;Laerm;9315;52.624;13.544;2023-07-31T07:11:30;73.46;50.36;86.41;;
18377;Laerm;9315;52.624;13.544;2023-07-31T07:13:57;73.43;51.93;83.75;;
18377;Laerm;9315;52.624;13.544;2023-07-31T07:16:24;71.14;46.82;81.70;;
18377;Laerm;9315;52.624;13.544;2023-07-31T07:18:51;75.46;53.95;86.38;;
18377;Laerm;9315;52.624;13.544;2023-07-31T07:21:32;73.74;50.04;83.20;;
18377;Laerm;9315;52.624;13.544;2023-07-31T07:23:59;71.94;46.82;82.26;;
18377;Laerm;9315;52.624;13.544;2023-07-31T07:26:26;71.31;48.64;83.73;;
18377;Laerm;9315;52.624;13.544;2023-07-31T07:28:54;71.78;49.71;78.76;;
18377;Laerm;9315;52.624;13.544;2023-07-31T07:31:26;71.83;50.25;81.61;;
18377;Laerm;9315;52.624;13.544;2023-07-31T07:33:53;71.51;51.58;80.28;;
18377;Laerm;9315;52.624;13.544;2023-07-31T07:36:21;71.40;53.65;80.26;;
18377;Laerm;9315;52.624;13.544;2023-07-31T07:38:48;72.16;51.30;82.23;;
18377;Laerm;9315;52.624;13.544;2023-07-31T07:41:15;72.84;50.78;83.94;;
18377;Laerm;9315;52.624;13.544;2023-07-31T07:43:42;72.98;50.07;85.23;;
18377;Laerm;9315;52.624;13.544;2023-07-31T07:46:10;70.61;49.77;79.46;;
18377;Laerm;9315;52.624;13.544;2023-07-31T07:48:37;70.59;50.47;82.34;;
18377;Laerm;9315;52.624;13.544;2023-07-31T07:51:04;70.84;48.89;82.62;;
18377;Laerm;9315;52.624;13.544;2023-07-31T07:53:31;70.89;47.93;81.62;;
18377;Laerm;9315;52.624;13.544;2023-07-31T07:55:59;72.51;48.27;84.10;;
18377;Laerm;9315;52.624;13.544;2023-07-31T07:58:26;69.97;47.81;77.27;;
18377;Laerm;9315;52.624;13.544;2023-07-31T08:00:53;72.15;50.87;81.40;;
18377;Laerm;9315;52.624;13.544;2023-07-31T08:03:20;70.21;50.41;78.80;;
18377;Laerm;9315;52.624;13.544;2023-07-31T08:05:48;72.68;47.89;83.24;;
18377;Laerm;9315;52.624;13.544;2023-07-31T08:08:16;68.47;48.45;78.32;;
18377;Laerm;9315;52.624;13.544;2023-07-31T08:10:43;70.02;50.20;78.84;;
18377;Laerm;9315;52.624;13.544;2023-07-31T08:13:11;72.17;53.04;85.37;;
18377;Laerm;9315;52.624;13.544;2023-07-31T08:15:41;70.74;52.62;79.60;;
18377;Laerm;9315;52.624;13.544;2023-07-31T08:18:10;71.58;51.63;80.53;;
18377;Laerm;9315;52.624;13.544;2023-07-31T08:20:39;70.95;54.66;83.59;;
18377;Laerm;9315;52.624;13.544;2023-07-31T08:23:06;70.99;51.78;80.99;;
18377;Laerm;9315;52.624;13.544;2023-07-31T08:25:36;70.02;52.67;79.28;;
18377;Laerm;9315;52.624;13.544;2023-07-31T08:28:04;70.64;50.58;86.54;;
18377;Laerm;9315;52.624;13.544;2023-07-31T08:30:33;69.49;45.72;78.13;;
18377;Laerm;9315;52.624;13.544;2023-07-31T08:33:01;71.84;48.63;83.02;;
18377;Laerm;9315;52.624;13.544;2023-07-31T08:35:30;70.94;50.84;81.49;;
18377;Laerm;9315;52.624;13.544;2023-07-31T08:37:57;70.05;49.64;76.29;;
18377;Laerm;9315;52.624;13.544;2023-07-31T08:40:25;70.59;51.08;80.91;;
18377;Laerm;9315;52.624;13.544;2023-07-31T08:42:55;71.03;51.84;82.43;;
18377;Laerm;9315;52.624;13.544;2023-07-31T08:45:29;69.37;50.09;78.69;;
18377;Laerm;9315;52.624;13.544;2023-07-31T08:47:58;71.18;49.14;80.42;;
18377;Laerm;9315;52.624;13.544;2023-07-31T08:50:25;69.27;48.86;79.32;;
18377;Laerm;9315;52.624;13.544;2023-07-31T08:52:53;70.00;51.27;79.74;;
18377;Laerm;9315;52.624;13.544;2023-07-31T08:55:23;69.62;49.67;78.74;;
18377;Laerm;9315;52.624;13.544;2023-07-31T08:57:59;70.53;54.94;81.69;;
18377;Laerm;9315;52.624;13.544;2023-07-31T09:00:27;68.28;49.69;76.55;;
18377;Laerm;9315;52.624;13.544;2023-07-31T09:03:15;69.84;53.01;77.35;;
18377;Laerm;9315;52.624;13.544;2023-07-31T09:05:46;70.13;50.69;80.94;;
18377;Laerm;9315;52.624;13.544;2023-07-31T09:08:21;69.07;49.73;77.83;;
18377;Laerm;9315;52.624;13.544;2023-07-31T09:10:49;69.86;50.63;77.45;;
18377;Laerm;9315;52.624;13.544;2023-07-31T09:13:17;70.13;50.12;79.48;;
18377;Laerm;9315;52.624;13.544;2023-07-31T09:15:46;69.73;47.21;81.69;;
18377;Laerm;9315;52.624;13.544;2023-07-31T09:18:13;70.60;55.58;80.69;;
18377;Laerm;9315;52.624;13.544;2023-07-31T09:20:45;68.68;52.20;77.45;;
18377;Laerm;9315;52.624;13.544;2023-07-31T09:23:14;68.07;50.42;76.97;;
18377;Laerm;9315;52.624;13.544;2023-07-31T09:25:46;71.21;48.52;79.78;;
18377;Laerm;9315;52.624;13.544;2023-07-31T09:28:13;69.60;51.71;84.74;;
18377;Laerm;9315;52.624;13.544;2023-07-31T09:30:49;67.87;47.06;76.45;;
18377;Laerm;9315;52.624;13.544;2023-07-31T09:33:19;68.02;48.56;75.97;;
18377;Laerm;9315;52.624;13.544;2023-07-31T09:35:50;70.28;50.87;86.96;;
18377;Laerm;9315;52.624;13.544;2023-07-31T09:38:17;67.91;48.42;75.49;;
18377;Laerm;9315;52.624;13.544;2023-07-31T09:40:47;69.05;48.91;77.85;;
18377;Laerm;9315;52.624;13.544;2023-07-31T09:43:24;70.68;53.90;82.93;;
18377;Laerm;9315;52.624;13.544;2023-07-31T09:45:58;68.84;46.89;81.16;;
18377;Laerm;9315;52.624;13.544;2023-07-31T09:48:25;68.67;50.47;81.57;;
18377;Laerm;9315;52.624;13.544;2023-07-31T09:50:54;69.11;49.27;83.17;;
18377;Laerm;9315;52.624;13.544;2023-07-31T09:53:29;70.76;48.89;81.00;;
18377;Laerm;9315;52.624;13.544;2023-07-31T09:55:59;70.28;50.81;79.88;;
18377;Laerm;9315;52.624;13.544;2023-07-31T09:58:29;70.37;47.15;85.46;;
18377;Laerm;9315;52.624;13.544;2023-07-31T10:00:58;71.32;50.03;82.03;;
18377;Laerm;9315;52.624;13.544;2023-07-31T10:03:27;70.63;51.55;79.80;;
18377;Laerm;9315;52.624;13.544;2023-07-31T10:05:57;70.07;51.35;78.11;;
18377;Laerm;9315;52.624;13.544;2023-07-31T10:08:30;69.13;47.87;80.44;;
18377;Laerm;9315;52.624;13.544;2023-07-31T10:10:59;72.17;50.41;82.30;;
18377;Laerm;9315;52.624;13.544;2023-07-31T10:13:28;71.04;54.51;81.99;;
18377;Laerm;9315;52.624;13.544;2023-07-31T10:16:02;71.82;56.74;86.96;;
18377;Laerm;9315;52.624;13.544;2023-07-31T10:18:30;70.26;48.56;81.48;;
18377;Laerm;9315;52.624;13.544;2023-07-31T10:20:58;70.37;47.35;79.43;;
18377;Laerm;9315;52.624;13.544;2023-07-31T10:23:26;71.31;53.30;87.16;;
18377;Laerm;9315;52.624;13.544;2023-07-31T10:25:54;71.51;52.27;88.07;;
18377;Laerm;9315;52.624;13.544;2023-07-31T10:28:22;69.40;51.26;78.62;;
18377;Laerm;9315;52.624;13.544;2023-07-31T10:30:50;69.94;49.38;77.31;;
18377;Laerm;9315;52.624;13.544;2023-07-31T10:33:18;69.28;49.27;77.56;;
18377;Laerm;9315;52.624;13.544;2023-07-31T10:35:50;85.12;48.37;105.46;;
18377;Laerm;9315;52.624;13.544;2023-07-31T10:38:20;69.81;49.41;78.12;;
18377;Laerm;9315;52.624;13.544;2023-07-31T10:40:50;69.20;48.22;78.13;;
18377;Laerm;9315;52.624;13.544;2023-07-31T10:43:25;76.21;52.91;97.36;;
18377;Laerm;9315;52.624;13.544;2023-07-31T10:45:54;71.20;52.99;79.81;;
18377;Laerm;9315;52.624;13.544;2023-07-31T10:48:21;72.01;50.48;86.57;;
18377;Laerm;9315;52.624;13.544;2023-07-31T10:50:54;71.66;52.33;83.93;;
18377;Laerm;9315;52.624;13.544;2023-07-31T10:53:31;71.43;51.83;82.81;;
18377;Laerm;9315;52.624;13.544;2023-07-31T10:56:09;72.01;51.82;80.23;;
18377;Laerm;9315;52.624;13.544;2023-07-31T10:58:44;70.00;48.85;78.22;;
18377;Laerm;9315;52.624;13.544;2023-07-31T11:01:13;71.10;50.84;82.96;;
18377;Laerm;9315;52.624;13.544;2023-07-31T11:03:49;72.30;48.73;81.77;;
18377;Laerm;9315;52.624;13.544;2023-07-31T11:06:19;72.35;50.52;82.85;;
18377;Laerm;9315;52.624;13.544;2023-07-31T11:08:50;71.99;49.54;82.30;;
18377;Laerm;9315;52.624;13.544;2023-07-31T11:11:20;72.04;50.25;83.27;;
18377;Laerm;9315;52.624;13.544;2023-07-31T11:13:49;70.52;49.88;82.12;;
18377;Laerm;9315;52.624;13.544;2023-07-31T11:16:25;70.85;52.10;84.29;;
18377;Laerm;9315;52.624;13.544;2023-07-31T11:18:53;70.17;52.48;81.10;;
18377;Laerm;9315;52.624;13.544;2023-07-31T11:21:24;69.21;51.23;78.45;;
18377;Laerm;9315;52.624;13.544;2023-07-31T11:23:56;82.65;49.56;108.13;;
18377;Laerm;9315;52.624;13.544;2023-07-31T11:26:27;71.13;52.03;84.41;;
18377;Laerm;9315;52.624;13.544;2023-07-31T11:28:58;70.73;50.41;78.00;;
18377;Laerm;9315;52.624;13.544;2023-07-31T11:31:27;69.47;49.59;78.44;;
18377;Laerm;9315;52.624;13.544;2023-07-31T11:34:13;71.98;50.00;85.69;;
18377;Laerm;9315;52.624;13.544;2023-07-31T11:36:40;68.74;50.32;76.76;;
18377;Laerm;9315;52.624;13.544;2023-07-31T11:39:12;68.21;50.82;79.30;;
18377;Laerm;9315;52.624;13.544;2023-07-31T11:41:42;68.59;49.06;78.94;;
18377;Laerm;9315;52.624;13.544;2023-07-31T11:44:10;70.38;49.69;80.38;;
18377;Laerm;9315;52.624;13.544;2023-07-31T11:46:57;71.20;50.31;84.91;;
18377;Laerm;9315;52.624;13.544;2023-07-31T11:49:25;68.88;48.43;76.92;;
18377;Laerm;9315;52.624;13.544;2023-07-31T11:51:52;69.36;49.11;78.33;;
18377;Laerm;9315;52.624;13.544;2023-07-31T11:54:20;70.80;52.56;84.25;;
18377;Laerm;9315;52.624;13.544;2023-07-31T11:56:47;69.42;52.24;81.98;;
18377;Laerm;9315;52.624;13.544;2023-07-31T11:59:14;70.05;53.61;78.96;;
18377;Laerm;9315;52.624;13.544;2023-07-31T12:01:43;71.26;52.05;78.10;;
18377;Laerm;9315;52.624;13.544;2023-07-31T12:04:11;69.71;50.76;77.07;;
18377;Laerm;9315;52.624;13.544;2023-07-31T12:06:38;68.76;50.06;78.71;;
18377;Laerm;9315;52.624;13.544;2023-07-31T12:09:06;68.01;48.61;76.51;;
18377;Laerm;9315;52.624;13.544;2023-07-31T12:11:51;68.86;50.56;77.73;;
18377;Laerm;9315;52.624;13.544;2023-07-31T12:14:29;69.00;48.07;77.54;;
18377;Laerm;9315;52.624;13.544;2023-07-31T12:17:00;70.20;55.79;76.38;;
18377;Laerm;9315;52.624;13.544;2023-07-31T12:19:28;68.73;49.38;76.29;;
18377;Laerm;9315;52.624;13.544;2023-07-31T12:22:02;70.74;53.97;89.57;;
18377;Laerm;9315;52.624;13.544;2023-07-31T12:24:29;69.86;52.96;78.89;;
18377;Laerm;9315;52.624;13.544;2023-07-31T12:26:57;71.14;50.98;80.31;;
18377;Laerm;9315;52.624;13.544;2023-07-31T12:29:34;70.31;51.68;78.73;;
18377;Laerm;9315;52.624;13.544;2023-07-31T12:32:25;70.04;50.48;79.22;;
18377;Laerm;9315;52.624;13.544;2023-07-31T12:34:53;70.21;50.46;79.32;;
18377;Laerm;9315;52.624;13.544;2023-07-31T12:37:23;69.21;47.42;78.55;;
18377;Laerm;9315;52.624;13.544;2023-07-31T12:39:51;70.62;50.36;80.41;;
18377;Laerm;9315;52.624;13.544;2023-07-31T12:42:18;70.39;52.74;82.06;;
18377;Laerm;9315;52.624;13.544;2023-07-31T12:44:45;69.41;50.02;76.98;;
18377;Laerm;9315;52.624;13.544;2023-07-31T12:47:12;71.04;54.42;82.71;;
18377;Laerm;9315;52.624;13.544;2023-07-31T12:49:42;70.00;51.37;77.51;;
18377;Laerm;9315;52.624;13.544;2023-07-31T12:52:09;70.72;49.24;80.34;;
18377;Laerm;9315;52.624;13.544;2023-07-31T12:54:36;69.76;50.47;84.27;;
18377;Laerm;9315;52.624;13.544;2023-07-31T12:57:04;69.63;52.67;78.10;;
18377;Laerm;9315;52.624;13.544;2023-07-31T12:59:31;68.86;47.70;77.06;;
18377;Laerm;9315;52.624;13.544;2023-07-31T13:01:58;68.58;51.92;76.43;;
18377;Laerm;9315;52.624;13.544;2023-07-31T13:04:26;69.96;48.97;80.09;;
18377;Laerm;9315;52.624;13.544;2023-07-31T13:06:53;70.11;53.13;80.93;;
18377;Laerm;9315;52.624;13.544;2023-07-31T13:09:20;68.96;50.41;80.73;;
18377;Laerm;9315;52.624;13.544;2023-07-31T13:11:47;69.88;52.97;79.41;;
18377;Laerm;9315;52.624;13.544;2023-07-31T13:14:14;70.92;56.64;78.00;;
18377;Laerm;9315;52.624;13.544;2023-07-31T13:16:42;72.64;52.19;79.77;;
18377;Laerm;9315;52.624;13.544;2023-07-31T13:19:09;72.84;48.80;80.90;;
18377;Laerm;9315;52.624;13.544;2023-07-31T13:21:36;72.63;51.80;81.12;;
18377;Laerm;9315;52.624;13.544;2023-07-31T13:24:04;72.39;51.04;79.50;;
18377;Laerm;9315;52.624;13.544;2023-07-31T13:26:31;72.84;50.53;83.60;;
18377;Laerm;9315;52.624;13.544;2023-07-31T13:29:00;73.92;57.85;82.12;;
18377;Laerm;9315;52.624;13.544;2023-07-31T13:31:27;73.17;53.18;82.98;;
18377;Laerm;9315;52.624;13.544;2023-07-31T13:33:54;75.48;55.04;85.10;;
18377;Laerm;9315;52.624;13.544;2023-07-31T13:36:21;73.35;51.47;84.36;;
18377;Laerm;9315;52.624;13.544;2023-07-31T13:38:51;73.56;51.25;82.18;;
18377;Laerm;9315;52.624;13.544;2023-07-31T13:41:18;72.50;52.19;80.48;;
18377;Laerm;9315;52.624;13.544;2023-07-31T13:43:46;72.77;49.58;81.93;;
18377;Laerm;9315;52.624;13.544;2023-07-31T13:46:13;72.31;49.08;85.81;;
18377;Laerm;9315;52.624;13.544;2023-07-31T13:49:24;70.73;50.72;81.32;;
18377;Laerm;9315;52.624;13.544;2023-07-31T13:51:52;71.76;52.59;84.24;;
18377;Laerm;9315;52.624;13.544;2023-07-31T13:54:19;71.32;48.84;78.63;;